• Join FlightAware (Why Join?)
  • Login
  • US Flag 
11:27PM EDT


 

Airport Tracker/Info


-or-


 

Live Flight TrackerFlight Track Log ✈ DAL6231 ✈ 27-Apr-2013 ✈ KLGA - CYHZ

Flight Track Log - Related Links

Times and Time Zones

All times are in EDT time to prevent confusion due to time zone crossing. See the DAL6231 flight status page for this flight to view local times or setup timezone preferences in your user account.

Time Position Orientation Groundspeed Altitude Reporting Facility
EDT Latitude Longitude Course Direction KTS MPH feet Rate Location/Type
06:44PM 40.7500 -73.8833 66° East 167 192 1,800  Level New York TRACON
06:45PM 40.7667 -73.8333 66° East 220 253 3,700 2,400 Climbing New York TRACON
06:47PM 40.8783 -73.6972 43° Northeast 245 282 9,400 2,340 Climbing Boston Center
06:48PM 40.9414 -73.6325 38° Northeast 263 303 11,400 1,740 Climbing Boston Center
06:49PM 41.0028 -73.5650 40° Northeast 296 341 12,900 1,680 Climbing Boston Center
06:50PM 41.0828 -73.4728 41° Northeast 326 375 14,800 1,800 Climbing Boston Center
06:51PM 41.1522 -73.3967 40° Northeast 356 410 16,500 1,500 Climbing Boston Center
06:52PM 41.2364 -73.2903 44° Northeast 361 415 17,800 1,800 Climbing Boston Center
06:53PM 41.2914 -73.1750 58° Northeast 361 415 20,200 1,980 Climbing Boston Center
06:54PM 41.3544 -73.0650 53° Northeast 371 427 21,800 1,440 Climbing Boston Center
06:55PM 41.4178 -72.9494 54° Northeast 376 433 23,100 1,200 Climbing Boston Center
06:56PM 41.4847 -72.8336 52° Northeast 382 440 24,300 900 Climbing Boston Center
06:57PM 41.5394 -72.7258 56° Northeast 387 445 25,000 300 Climbing Boston Center
06:58PM 41.6125 -72.6011 52° Northeast 392 451 25,000  Level Boston Center
06:59PM 41.6772 -72.4678 57° Northeast 414 476 25,000  Level Boston Center
07:00PM 41.7417 -72.3233 59° Northeast 428 493 25,100 540 Climbing Boston Center
07:01PM 41.8061 -72.1811 59° Northeast 440 506 26,100 1,080 Climbing Boston Center
07:02PM 41.8725 -72.0358 58° Northeast 446 513 27,300 1,260 Climbing Boston Center
07:03PM 41.9344 -71.8931 60° Northeast 451 519 28,700 720 Climbing Boston Center
07:04PM 42.0214 -71.7889 42° Northeast 428 493 29,000 180 Climbing Boston Center
07:05PM 42.1372 -71.6731 37° Northeast 421 484 29,200 480 Climbing Boston Center
07:06PM 42.2300 -71.5428 46° Northeast 427 491 30,000 660 Climbing Boston Center
07:07PM 42.3167 -71.4125 48° Northeast 439 505 30,600 600 Climbing Boston Center
07:08PM 42.3986 -71.2847 49° Northeast 449 517 31,200 600 Climbing Boston Center
07:09PM 42.4828 -71.1564 48° Northeast 449 517 31,800 600 Climbing Boston Center
07:10PM 42.5667 -71.0278 48° Northeast 456 525 32,400 600 Climbing Boston Center
07:11PM 42.6506 -70.8961 49° Northeast 450 518 33,000 600 Climbing Boston Center
07:12PM 42.7339 -70.7639 49° Northeast 455 524 33,700 660 Climbing Boston Center
07:13PM 42.8194 -70.6286 49° Northeast 460 529 34,400 660 Climbing Boston Center
07:14PM 42.9028 -70.4986 49° Northeast 460 529 35,100 660 Climbing Boston Center
07:15PM 42.9839 -70.3681 50° Northeast 460 529 35,800 600 Climbing Boston Center
07:16PM 43.0669 -70.2347 50° Northeast 460 529 36,400 540 Climbing Boston Center
07:17PM 43.1497 -70.1036 49° Northeast 460 529 36,900 300 Climbing Boston Center
07:18PM 43.2203 -69.9897 50° Northeast 454 522 37,000  Climbing Boston Center
07:19PM 43.3028 -69.8550 50° Northeast 454 522 37,000  Level Boston Center
07:20PM 43.3892 -69.7172 49° Northeast 465 535 37,000  Level Boston Center
07:21PM 43.4733 -69.5761 51° Northeast 465 535 37,000  Level Boston Center
07:22PM 43.5594 -69.4372 49° Northeast 465 535 37,000  Level Boston Center
07:23PM 43.6453 -69.2981 50° Northeast 465 535 37,000  Level Boston Center
07:24PM 43.7308 -69.1586 50° Northeast 465 535 37,000  Level Boston Center
07:25PM 43.8164 -69.0186 50° Northeast 465 535 37,000  Level Boston Center
07:26PM 43.9019 -68.8783 50° Northeast 465 535 37,000  Level Boston Center
07:27PM 43.9869 -68.7375 50° Northeast 465 535 37,000  Level Boston Center
07:28PM 44.0700 -68.5964 51° Northeast 465 535 37,000  Level Boston Center
07:29PM 44.1625 -68.4400 50° Northeast 465 535 37,000  Level Boston Center
07:30PM 44.2472 -68.2950 51° Northeast 465 535 37,000  Level Boston Center
07:31PM 44.3294 -68.1528 51° Northeast 465 535 37,000  Level Boston Center
07:32PM 44.4158 -68.0100 50° Northeast 465 535 37,000  Level Boston Center
07:33PM 44.4978 -67.8669 51° Northeast 465 535 37,000  Level Boston Center
07:34PM 44.5167 -67.8000 68° East 480 552 37,000  Level Moncton Center
07:35PM 44.5833 -67.6667 55° Northeast 480 552 37,000  Level Moncton Center
07:35PM 44.6650 -67.5736 39° Northeast 472 543 37,000  Level Boston Center
07:36PM 44.7308 -67.4569 52° Northeast 472 543 37,000  Level Boston Center
07:37PM 44.7667 -67.3667 61° Northeast 480 552 37,000  Level Moncton Center
07:38PM 44.8333 -67.2333 55° Northeast 480 552 37,000  Level Moncton Center
07:39PM 44.8833 -67.0333 71° East 480 552 37,000  Level Moncton Center
07:40PM 44.9000 -66.8500 83° East 480 552 37,000 -180 Level Moncton Center
07:41PM 44.9000 -66.6667 90° East 480 552 36,700 -1,200 Descending Moncton Center
07:42PM 44.9000 -66.4667 90° East 480 552 34,600 -2,100 Descending Moncton Center
07:43PM 44.9000 -66.2833 90° East 460 529 32,600 -2,040 Descending Moncton Center
07:44PM 44.9167 -66.1167 82° East 460 529 30,600 -1,980 Descending Moncton Center
07:45PM 44.9167 -65.9333 90° East 460 529 28,700 -1,920 Descending Moncton Center
07:46PM 44.9167 -65.7667 90° East 450 518 26,800 -1,860 Descending Moncton Center
07:47PM 44.9167 -65.6000 90° East 440 506 25,000 -1,860 Descending Moncton Center
07:48PM 44.9167 -65.4167 90° East 430 495 23,100 -1,800 Descending Moncton Center
07:49PM 44.9167 -65.2500 90° East 430 495 21,400 -1,740 Descending Moncton Center
07:50PM 44.9167 -65.0833 90° East 430 495 19,700 -1,680 Descending Moncton Center
07:51PM 44.9167 -64.9167 90° East 420 483 18,100 -1,680 Descending Moncton Center
07:52PM 44.9167 -64.7500 90° East 420 483 16,400 -1,800 Descending Moncton Center
07:53PM 44.9167 -64.5833 90° East 400 460 14,600 -1,800 Descending Moncton Center
07:54PM 44.8833 -64.4500 109° East 360 414 12,800 -1,740 Descending Moncton Center
07:55PM 44.8500 -64.3333 112° Southeast 330 380 11,200 -1,620 Descending Moncton Center
07:56PM 44.8333 -64.2333 103° East 300 345 9,600 -1,800 Descending Moncton Center
07:57PM 44.8000 -64.1167 112° Southeast 280 322 7,600 -1,920 Descending Moncton Center
07:58PM 44.7833 -64.0167 103° East 270 311 5,800 -1,800 Descending Moncton Center
07:59PM 44.7500 -63.9333 119° Southeast 260 299 4,000 -1,680 Descending Moncton Center
08:00PM 44.7167 -63.8500 119° Southeast 250 288 2,500 -900 Descending Moncton Center
08:01PM 44.6833 -63.7833 125° Southeast 240 276 2,200 -180 Descending Moncton Center
08:02PM 44.6833 -63.7167 90° East 190 219 2,200  Level Moncton Center
08:03PM 44.7000 -63.6667 65° Northeast 170 196 2,200 -120 Level Moncton Center
08:04PM 44.7333 -63.6167 47° Northeast 160 184 2,000 -120 Descending Moncton Center
08:05PM 44.7667 -63.6000 20° North 150 173 2,000 -60 Level Moncton Center
08:06PM 44.8000 -63.5667 35° Northeast 120 138 1,900 -420 Descending Moncton Center
08:07PM 44.8333 -63.5500 20° North 120 138 1,200 -780 Descending Moncton Center
08:08PM 44.8500 -63.5000 65° Northeast 120 138 400 -840 Descending Moncton Center